createdAt,value
2018-06-08T00:00:48.307Z,19.20
2018-06-08T00:03:17.263Z,19.10
2018-06-08T00:05:46.223Z,19.00
2018-06-08T00:08:15.230Z,18.80
2018-06-08T00:10:44.186Z,18.90
2018-06-08T00:13:13.177Z,19.00
2018-06-08T00:15:42.128Z,19.00
2018-06-08T00:18:11.178Z,19.00
2018-06-08T00:20:40.137Z,18.90
2018-06-08T00:23:09.090Z,18.90
2018-06-08T00:25:38.087Z,18.70
2018-06-08T00:28:07.085Z,18.80
2018-06-08T00:30:36.035Z,18.80
2018-06-08T00:33:05.116Z,18.80
2018-06-08T00:35:34.106Z,18.80
2018-06-08T00:38:03.130Z,18.80
2018-06-08T00:40:32.080Z,18.80
2018-06-08T00:43:01.057Z,18.80
2018-06-08T00:45:30.058Z,18.70
2018-06-08T00:47:59.038Z,18.70
2018-06-08T00:50:28.027Z,18.60
2018-06-08T00:52:56.988Z,18.60
2018-06-08T00:55:25.926Z,18.70
2018-06-08T00:57:54.926Z,18.60
2018-06-08T01:00:24.062Z,18.50
2018-06-08T01:02:53.140Z,18.50
2018-06-08T01:05:22.118Z,18.50
2018-06-08T01:07:51.063Z,18.40
2018-06-08T01:10:20.018Z,18.50
2018-06-08T01:12:48.974Z,18.50
2018-06-08T01:15:17.927Z,18.40
2018-06-08T01:17:46.922Z,18.40
2018-06-08T01:20:15.869Z,18.40
2018-06-08T01:22:45.551Z,18.30
2018-06-08T01:25:14.531Z,18.30
2018-06-08T01:27:43.490Z,18.20
2018-06-08T01:30:12.447Z,18.20
2018-06-08T01:32:41.452Z,18.20
2018-06-08T01:35:10.426Z,18.20
2018-06-08T01:37:39.437Z,18.00
2018-06-08T01:40:08.391Z,18.00
2018-06-08T01:42:37.346Z,18.10
2018-06-08T01:45:06.379Z,18.10
2018-06-08T01:47:35.486Z,18.00
2018-06-08T01:50:04.461Z,18.10
2018-06-08T01:52:33.534Z,18.00
2018-06-08T01:55:02.640Z,18.00
2018-06-08T01:57:31.662Z,18.00
2018-06-08T02:00:00.670Z,18.00
2018-06-08T02:02:30.690Z,18.00
2018-06-08T02:04:59.892Z,18.00
2018-06-08T02:07:28.838Z,18.00
2018-06-08T02:09:57.833Z,17.90
2018-06-08T02:12:26.785Z,17.90
2018-06-08T02:14:55.737Z,18.00
2018-06-08T02:17:25.250Z,18.00
2018-06-08T02:19:54.209Z,18.10
2018-06-08T02:22:23.298Z,18.10
2018-06-08T02:24:52.267Z,18.10
2018-06-08T02:27:21.229Z,18.10
2018-06-08T02:29:50.192Z,18.20
2018-06-08T02:32:19.183Z,18.10
2018-06-08T02:34:48.167Z,18.20
2018-06-08T02:37:17.155Z,18.10
2018-06-08T02:39:46.151Z,18.10
2018-06-08T02:42:15.098Z,18.20
2018-06-08T02:44:44.090Z,18.20
2018-06-08T02:47:13.055Z,18.10
2018-06-08T02:49:42.042Z,18.10
2018-06-08T02:52:11.098Z,18.10
2018-06-08T02:54:40.055Z,18.10
2018-06-08T02:57:09.039Z,18.00
2018-06-08T02:59:38.039Z,18.00
2018-06-08T03:02:07.219Z,18.00
2018-06-08T03:04:36.175Z,18.00
2018-06-08T03:07:05.761Z,17.90
2018-06-08T03:09:34.753Z,17.90
2018-06-08T03:12:03.706Z,17.90
2018-06-08T03:14:32.694Z,17.80
2018-06-08T03:17:01.683Z,17.80
2018-06-08T03:19:30.670Z,17.70
2018-06-08T03:21:59.682Z,17.70
2018-06-08T03:24:28.706Z,17.60
2018-06-08T03:26:57.718Z,17.60
2018-06-08T03:29:26.681Z,17.60
2018-06-08T03:31:55.683Z,17.60
2018-06-08T03:34:24.647Z,17.50
2018-06-08T03:36:53.598Z,17.40
2018-06-08T03:39:22.559Z,17.20
2018-06-08T03:41:51.546Z,17.20
2018-06-08T03:44:20.535Z,17.10
2018-06-08T03:46:49.544Z,17.10
2018-06-08T03:49:18.556Z,17.20
2018-06-08T03:51:47.486Z,17.00
2018-06-08T03:54:17.315Z,17.10
2018-06-08T03:56:48.404Z,17.20
2018-06-08T03:59:18.090Z,17.10
2018-06-08T04:01:47.047Z,17.10
2018-06-08T04:04:16.301Z,17.10
2018-06-08T04:06:45.243Z,17.10
2018-06-08T04:09:14.231Z,17.20
2018-06-08T04:11:43.216Z,17.20
2018-06-08T04:14:12.294Z,17.20
2018-06-08T04:16:41.326Z,17.30
2018-06-08T04:19:10.277Z,17.30
2018-06-08T04:21:39.304Z,17.30
2018-06-08T04:24:08.322Z,17.40
2018-06-08T04:26:37.310Z,17.50
2018-06-08T04:29:06.260Z,17.50
2018-06-08T04:31:35.320Z,17.60
2018-06-08T04:34:04.366Z,17.60
2018-06-08T04:36:33.374Z,17.60
2018-06-08T04:39:02.339Z,17.70
2018-06-08T04:41:31.367Z,17.90
2018-06-08T04:44:00.323Z,17.90
2018-06-08T04:46:29.310Z,17.70
2018-06-08T04:48:58.286Z,17.70
2018-06-08T04:51:27.294Z,17.90
2018-06-08T04:53:56.255Z,18.10
2018-06-08T04:56:25.246Z,18.20
2018-06-08T04:58:54.234Z,18.40
2018-06-08T05:01:23.232Z,18.50
2018-06-08T05:03:52.211Z,18.60
2018-06-08T05:06:21.160Z,18.80
2018-06-08T05:08:50.124Z,18.80
2018-06-08T05:11:19.103Z,18.90
2018-06-08T05:13:48.058Z,19.00
2018-06-08T05:16:17.050Z,19.00
2018-06-08T05:18:46.031Z,19.20
2018-06-08T05:21:15.102Z,19.30
2018-06-08T05:23:44.079Z,19.20
2018-06-08T05:26:13.233Z,19.30
2018-06-08T05:28:42.167Z,19.30
2018-06-08T05:31:11.113Z,19.50
2018-06-08T05:33:40.091Z,19.60
2018-06-08T05:36:09.059Z,19.50
2018-06-08T05:38:38.002Z,19.70
2018-06-08T05:41:07.061Z,19.70
2018-06-08T05:43:35.975Z,19.70
2018-06-08T05:46:04.993Z,19.80
2018-06-08T05:48:33.961Z,20.00
2018-06-08T05:51:02.936Z,20.10
2018-06-08T05:53:31.874Z,20.20
2018-06-08T05:56:00.838Z,20.20
2018-06-08T05:58:29.842Z,20.40
2018-06-08T06:00:58.793Z,20.50
2018-06-08T06:03:27.755Z,20.70
2018-06-08T06:05:56.698Z,20.70
2018-06-08T06:08:25.668Z,20.90
2018-06-08T06:10:54.680Z,21.00
2018-06-08T06:15:55.778Z,21.20
2018-06-08T06:18:25.002Z,21.50
2018-06-08T06:20:53.964Z,21.40
2018-06-08T06:23:22.915Z,21.60
2018-06-08T06:25:51.983Z,21.70
2018-06-08T06:28:20.975Z,21.90
2018-06-08T06:30:49.955Z,22.20
2018-06-08T06:33:18.914Z,22.20
2018-06-08T06:35:47.894Z,22.40
2018-06-08T06:38:16.954Z,23.20
2018-06-08T06:40:45.951Z,23.80
2018-06-08T06:43:15.211Z,24.20
2018-06-08T06:45:44.181Z,24.80
2018-06-08T06:48:13.143Z,24.90
2018-06-08T06:50:42.091Z,24.40
2018-06-08T06:53:11.125Z,24.90
2018-06-08T06:55:40.063Z,25.80
2018-06-08T06:58:09.062Z,26.30
2018-06-08T07:00:38.191Z,25.40
2018-06-08T07:03:07.171Z,25.40
2018-06-08T07:05:36.114Z,26.50
2018-06-08T07:08:05.099Z,26.30
2018-06-08T07:10:34.047Z,26.40
2018-06-08T07:13:02.991Z,26.90
2018-06-08T07:15:31.972Z,27.60
2018-06-08T07:18:00.914Z,28.20
2018-06-08T07:20:29.934Z,29.00
2018-06-08T07:22:58.933Z,27.90
2018-06-08T07:25:27.907Z,28.50
2018-06-08T07:27:56.886Z,28.40
2018-06-08T07:30:25.844Z,28.70
2018-06-08T07:32:54.815Z,28.50
2018-06-08T07:35:23.767Z,26.80
2018-06-08T07:37:52.824Z,28.20
2018-06-08T07:40:21.963Z,26.60
2018-06-08T07:42:50.771Z,27.80
2018-06-08T07:45:19.714Z,28.40
2018-06-08T07:47:48.706Z,29.10
2018-06-08T07:50:17.758Z,28.90
2018-06-08T07:52:46.702Z,29.80
2018-06-08T07:55:15.643Z,28.90
2018-06-08T07:57:44.627Z,26.90
2018-06-08T08:00:13.562Z,27.10
2018-06-08T08:02:42.531Z,28.00
2018-06-08T08:05:11.487Z,28.00
2018-06-08T08:07:40.422Z,29.50
2018-06-08T08:10:09.462Z,30.20
2018-06-08T08:12:38.490Z,29.40
2018-06-08T08:15:07.507Z,28.20
2018-06-08T08:17:36.451Z,27.90
2018-06-08T08:20:05.421Z,28.00
2018-06-08T08:22:34.354Z,27.70
2018-06-08T08:25:03.431Z,29.50
2018-06-08T08:27:32.378Z,29.30
2018-06-08T08:30:01.361Z,30.30
2018-06-08T08:32:30.369Z,29.90
2018-06-08T08:34:59.318Z,29.80
2018-06-08T08:37:28.250Z,30.40
2018-06-08T08:39:57.215Z,30.00
2018-06-08T08:42:26.171Z,30.70
2018-06-08T08:44:55.159Z,31.10
2018-06-08T08:47:24.148Z,31.20
2018-06-08T08:49:53.130Z,31.00
2018-06-08T08:52:22.099Z,30.60
2018-06-08T08:54:51.086Z,30.40
2018-06-08T08:57:20.056Z,29.80
2018-06-08T08:59:49.085Z,30.50
2018-06-08T09:02:18.158Z,31.20
2018-06-08T09:04:47.114Z,30.70
2018-06-08T09:07:16.247Z,30.40
2018-06-08T09:09:45.210Z,30.00
2018-06-08T09:12:14.141Z,30.10
2018-06-08T09:14:43.134Z,29.00
2018-06-08T09:17:12.171Z,29.30
2018-06-08T09:19:41.211Z,29.70
2018-06-08T09:22:10.207Z,29.40
2018-06-08T09:24:39.254Z,28.50
2018-06-08T09:27:08.239Z,28.50
2018-06-08T09:29:37.183Z,28.60
2018-06-08T09:32:06.359Z,28.20
2018-06-08T09:34:35.347Z,27.80
2018-06-08T09:37:04.347Z,27.60
2018-06-08T09:39:33.290Z,27.50
2018-06-08T09:42:02.290Z,27.20
2018-06-08T09:44:31.283Z,27.70
2018-06-08T09:47:00.184Z,27.70
2018-06-08T09:49:29.155Z,27.70
2018-06-08T09:51:58.114Z,27.90
2018-06-08T09:54:27.110Z,27.70
2018-06-08T09:56:56.062Z,28.10
2018-06-08T09:59:25.023Z,28.10
2018-06-08T10:01:54.050Z,27.60
2018-06-08T10:04:23.094Z,27.60
2018-06-08T10:06:52.026Z,27.60
2018-06-08T10:09:21.025Z,27.80
2018-06-08T10:11:50.087Z,27.80
2018-06-08T10:14:19.086Z,28.10
2018-06-08T10:16:48.070Z,28.00
2018-06-08T10:19:17.058Z,27.70
2018-06-08T10:21:46.014Z,27.80
2018-06-08T10:24:15.086Z,28.30
2018-06-08T10:26:44.075Z,28.20
2018-06-08T10:29:13.063Z,27.60
2018-06-08T10:31:42.258Z,27.30
2018-06-08T10:34:11.239Z,26.90
2018-06-08T10:36:40.226Z,27.10
2018-06-08T10:39:09.274Z,27.00
2018-06-08T10:41:38.242Z,27.20
2018-06-08T10:44:07.223Z,27.10
2018-06-08T10:46:36.184Z,27.30
2018-06-08T10:49:05.211Z,27.50
2018-06-08T10:54:06.287Z,27.60
2018-06-08T10:56:35.277Z,27.20
2018-06-08T10:59:04.268Z,27.30
2018-06-08T11:01:33.226Z,27.30
2018-06-08T11:04:02.206Z,27.40
2018-06-08T11:06:31.211Z,27.30
2018-06-08T11:09:00.166Z,27.50
2018-06-08T11:11:29.090Z,27.60
2018-06-08T11:13:58.078Z,27.70
2018-06-08T11:16:27.023Z,27.80
2018-06-08T11:18:55.963Z,28.00
2018-06-08T11:21:26.336Z,28.00
2018-06-08T11:23:55.345Z,28.20
2018-06-08T11:26:24.506Z,28.00
2018-06-08T11:28:54.135Z,28.20
2018-06-08T11:31:23.118Z,28.40
2018-06-08T11:33:52.122Z,28.10
2018-06-08T11:36:21.126Z,27.80
2018-06-08T11:38:50.172Z,28.00
2018-06-08T11:41:19.194Z,28.40
2018-06-08T11:43:48.176Z,28.30
2018-06-08T11:46:17.199Z,28.20
2018-06-08T11:48:46.204Z,28.40
2018-06-08T11:51:15.206Z,28.20
2018-06-08T11:53:44.270Z,28.60
2018-06-08T11:56:13.315Z,28.40
2018-06-08T11:58:42.325Z,28.70
2018-06-08T12:01:11.303Z,28.60
2018-06-08T12:03:40.259Z,28.50
2018-06-08T12:06:09.260Z,28.20
2018-06-08T12:08:38.311Z,27.90
2018-06-08T12:11:07.378Z,28.60
2018-06-08T12:13:36.407Z,28.70
2018-06-08T12:16:05.383Z,29.10
2018-06-08T12:18:34.386Z,29.30
2018-06-08T12:21:03.423Z,29.30
2018-06-08T12:23:32.398Z,29.50
2018-06-08T12:26:01.415Z,29.30
2018-06-08T12:28:30.474Z,29.20
2018-06-08T12:30:59.531Z,29.00
2018-06-08T12:33:28.516Z,29.40
2018-06-08T12:35:57.538Z,29.50
2018-06-08T12:38:26.569Z,29.80
2018-06-08T12:40:55.521Z,29.80
2018-06-08T12:43:24.663Z,29.60
2018-06-08T12:45:53.628Z,29.30
2018-06-08T12:48:22.725Z,28.90
2018-06-08T12:50:51.646Z,29.40
2018-06-08T12:53:20.710Z,29.70
2018-06-08T12:55:50.801Z,29.40
2018-06-08T12:58:19.779Z,28.90
2018-06-08T13:00:48.756Z,29.20
2018-06-08T13:03:17.751Z,29.20
2018-06-08T13:05:46.832Z,29.50
2018-06-08T13:08:15.838Z,29.60
2018-06-08T13:10:44.812Z,30.30
2018-06-08T13:13:13.915Z,31.00
2018-06-08T13:15:42.878Z,31.10
2018-06-08T13:18:11.831Z,31.10
2018-06-08T13:20:40.787Z,30.70
2018-06-08T13:23:09.807Z,30.30
2018-06-08T13:25:38.758Z,30.60
2018-06-08T13:28:07.839Z,31.00
2018-06-08T13:30:36.854Z,32.10
2018-06-08T13:33:06.118Z,33.40
2018-06-08T13:35:35.068Z,33.80
2018-06-08T13:38:04.051Z,32.50
2018-06-08T13:40:33.054Z,31.60
2018-06-08T13:43:02.376Z,32.70
2018-06-08T13:45:31.354Z,33.10
2018-06-08T13:48:00.334Z,33.30
2018-06-08T13:50:30.047Z,33.90
2018-06-08T13:52:59.047Z,34.60
2018-06-08T13:55:28.073Z,35.60
2018-06-08T13:57:57.022Z,37.50
2018-06-08T14:00:26.007Z,37.80
2018-06-08T14:02:55.011Z,33.60
2018-06-08T14:05:24.034Z,33.10
2018-06-08T14:07:53.034Z,33.00
2018-06-08T14:10:22.003Z,34.40
2018-06-08T14:12:51.007Z,35.70
2018-06-08T14:15:20.030Z,35.90
2018-06-08T14:17:49.091Z,36.70
2018-06-08T14:20:18.174Z,32.40
2018-06-08T14:22:47.199Z,31.90
2018-06-08T14:25:16.162Z,32.60
2018-06-08T14:27:45.175Z,32.30
2018-06-08T14:30:14.144Z,34.10
2018-06-08T14:32:43.111Z,35.00
2018-06-08T14:35:12.063Z,33.80
2018-06-08T14:37:41.071Z,33.60
2018-06-08T14:40:10.075Z,34.50
2018-06-08T14:42:39.050Z,33.80
2018-06-08T14:45:08.035Z,34.70
2018-06-08T14:47:37.097Z,34.50
2018-06-08T14:50:06.072Z,35.30
2018-06-08T14:52:35.023Z,36.10
2018-06-08T14:55:04.006Z,35.90
2018-06-08T14:57:32.986Z,34.00
2018-06-08T15:00:01.947Z,34.10
2018-06-08T15:02:30.986Z,34.80
2018-06-08T15:04:59.938Z,33.80
2018-06-08T15:07:28.974Z,35.60
2018-06-08T15:09:57.933Z,34.40
2018-06-08T15:12:26.896Z,34.50
2018-06-08T15:14:55.885Z,35.10
2018-06-08T15:17:24.832Z,35.30
2018-06-08T15:19:53.835Z,34.50
2018-06-08T15:22:22.794Z,35.70
2018-06-08T15:24:51.803Z,34.40
2018-06-08T15:27:20.824Z,35.40
2018-06-08T15:29:49.850Z,35.50
2018-06-08T15:32:18.822Z,34.60
2018-06-08T15:34:47.828Z,32.90
2018-06-08T15:37:16.874Z,33.10
2018-06-08T15:39:46.842Z,32.50
2018-06-08T15:42:15.794Z,33.00
2018-06-08T15:44:44.750Z,33.10
2018-06-08T15:47:13.734Z,32.80
2018-06-08T15:49:42.713Z,31.30
2018-06-08T15:52:11.659Z,30.60
2018-06-08T15:54:40.694Z,31.10
2018-06-08T15:57:09.706Z,31.60
2018-06-08T15:59:38.657Z,32.30
2018-06-08T16:02:07.656Z,31.00
2018-06-08T16:04:36.603Z,30.60
2018-06-08T16:07:05.615Z,31.00
2018-06-08T16:09:34.570Z,31.10
2018-06-08T16:12:03.520Z,31.40
2018-06-08T16:14:32.749Z,31.00
2018-06-08T16:17:01.719Z,31.00
2018-06-08T16:19:30.726Z,31.80
2018-06-08T16:21:59.676Z,33.10
2018-06-08T16:24:29.283Z,33.50
2018-06-08T16:26:58.310Z,33.50
2018-06-08T16:29:27.455Z,34.00
2018-06-08T16:31:56.419Z,34.00
2018-06-08T16:34:25.421Z,33.90
2018-06-08T16:36:54.378Z,33.70
2018-06-08T16:39:23.382Z,33.60
2018-06-08T16:41:52.329Z,33.60
2018-06-08T16:44:21.397Z,33.20
2018-06-08T16:46:50.638Z,32.70
2018-06-08T16:49:19.821Z,32.00
2018-06-08T16:51:48.764Z,31.60
2018-06-08T16:54:17.816Z,31.40
2018-06-08T16:56:50.043Z,31.60
2018-06-08T16:59:19.062Z,31.70
2018-06-08T17:01:48.126Z,30.60
2018-06-08T17:04:17.099Z,30.70
2018-06-08T17:06:46.095Z,30.60
2018-06-08T17:09:15.087Z,30.90
2018-06-08T17:14:05.182Z,29.90
2018-06-08T17:16:34.175Z,29.80
2018-06-08T17:19:03.186Z,29.90
2018-06-08T17:21:32.155Z,29.80
2018-06-08T17:24:01.091Z,29.80
2018-06-08T17:26:30.106Z,29.60
2018-06-08T17:28:59.118Z,29.30
2018-06-08T17:31:28.134Z,28.90
2018-06-08T17:33:57.163Z,28.80
2018-06-08T17:36:26.126Z,28.80
2018-06-08T17:38:55.121Z,28.90
2018-06-08T17:41:24.126Z,28.80
2018-06-08T17:43:53.090Z,28.90
2018-06-08T17:46:22.110Z,29.00
2018-06-08T17:48:51.050Z,28.80
2018-06-08T17:51:20.131Z,29.00
2018-06-08T17:53:49.102Z,29.00
2018-06-08T17:56:18.050Z,28.80
2018-06-08T17:58:47.091Z,28.70
2018-06-08T18:01:16.134Z,28.80
2018-06-08T18:03:45.181Z,28.80
2018-06-08T18:06:14.190Z,28.60
2018-06-08T18:08:43.299Z,28.50
2018-06-08T18:11:12.260Z,28.30
2018-06-08T18:13:41.236Z,28.20
2018-06-08T18:16:10.187Z,28.00
2018-06-08T18:18:39.163Z,28.10
2018-06-08T18:21:08.137Z,27.90
2018-06-08T18:23:37.140Z,27.30
2018-06-08T18:26:06.215Z,27.10
2018-06-08T18:28:35.199Z,26.90
2018-06-08T18:31:04.195Z,26.50
2018-06-08T18:33:33.362Z,26.40
2018-06-08T18:36:02.315Z,26.40
2018-06-08T18:38:31.848Z,26.40
2018-06-08T18:41:00.898Z,26.00
2018-06-08T18:43:29.854Z,26.10
2018-06-08T18:45:58.848Z,25.90
2018-06-08T18:50:56.782Z,26.10
2018-06-08T18:53:25.796Z,25.90
2018-06-08T18:55:54.742Z,25.80
2018-06-08T18:58:24.013Z,25.70
2018-06-08T19:00:53.204Z,25.70
2018-06-08T19:03:22.206Z,25.80
2018-06-08T19:05:51.218Z,25.80
2018-06-08T19:08:20.209Z,25.90
2018-06-08T19:10:49.284Z,25.90
2018-06-08T19:13:18.418Z,25.80
2018-06-08T19:15:47.399Z,25.60
2018-06-08T19:18:16.350Z,25.40
2018-06-08T19:20:45.360Z,25.50
2018-06-08T19:23:14.351Z,25.50
2018-06-08T19:25:43.363Z,25.50
2018-06-08T19:28:12.370Z,25.50
2018-06-08T19:30:41.455Z,25.50
2018-06-08T19:33:10.382Z,25.50
2018-06-08T19:35:39.352Z,25.40
2018-06-08T19:38:08.488Z,25.40
2018-06-08T19:40:37.542Z,25.40
2018-06-08T19:43:06.636Z,25.30
2018-06-08T19:45:35.665Z,25.20
2018-06-08T19:48:04.631Z,25.20
2018-06-08T19:50:33.575Z,25.10
2018-06-08T19:53:02.561Z,24.90
2018-06-08T19:55:34.577Z,24.90
2018-06-08T19:58:03.530Z,24.90
2018-06-08T20:00:32.535Z,25.00
2018-06-08T20:03:01.651Z,24.90
2018-06-08T20:05:30.586Z,24.90
2018-06-08T20:07:59.583Z,24.80
2018-06-08T20:10:28.595Z,24.80
2018-06-08T20:12:57.633Z,24.80
2018-06-08T20:15:26.610Z,24.80
2018-06-08T20:17:55.602Z,24.80
2018-06-08T20:20:24.609Z,24.60
2018-06-08T20:22:53.575Z,24.60
2018-06-08T20:25:22.579Z,24.50
2018-06-08T20:27:51.601Z,24.50
2018-06-08T20:30:20.647Z,24.50
2018-06-08T20:32:49.687Z,24.40
2018-06-08T20:35:18.662Z,24.30
2018-06-08T20:37:47.631Z,24.20
2018-06-08T20:40:16.651Z,24.00
2018-06-08T20:42:45.607Z,24.20
2018-06-08T20:45:14.631Z,24.00
2018-06-08T20:47:43.599Z,24.00
2018-06-08T20:50:12.592Z,24.00
2018-06-08T20:52:41.627Z,24.00
2018-06-08T20:55:10.630Z,23.90
2018-06-08T20:57:49.743Z,23.90
2018-06-08T21:00:18.707Z,23.90
2018-06-08T21:02:47.687Z,23.80
2018-06-08T21:05:16.658Z,23.90
2018-06-08T21:07:45.785Z,23.90
2018-06-08T21:10:14.778Z,23.80
2018-06-08T21:12:43.730Z,23.80
2018-06-08T21:15:12.666Z,23.60
2018-06-08T21:17:41.720Z,23.60
2018-06-08T21:20:10.763Z,23.60
2018-06-08T21:22:39.953Z,23.60
2018-06-08T21:25:09.149Z,23.60
2018-06-08T21:27:38.189Z,23.40
2018-06-08T21:30:07.222Z,23.10
2018-06-08T21:32:36.810Z,23.00
2018-06-08T21:35:06.002Z,23.00
2018-06-08T21:37:34.960Z,22.80
2018-06-08T21:40:03.980Z,22.70
2018-06-08T21:42:33.020Z,22.80
2018-06-08T21:45:02.083Z,22.70
2018-06-08T21:47:31.131Z,22.70
2018-06-08T21:50:00.254Z,22.60
2018-06-08T21:54:58.066Z,22.50
2018-06-08T21:57:27.170Z,22.50
2018-06-08T21:59:56.287Z,22.30
2018-06-08T22:02:25.299Z,22.20
2018-06-08T22:07:22.927Z,21.80
2018-06-08T22:09:52.187Z,21.60
2018-06-08T22:12:21.189Z,21.40
2018-06-08T22:14:50.263Z,21.50
2018-06-08T22:17:19.233Z,21.60
2018-06-08T22:19:48.219Z,21.60
2018-06-08T22:22:17.230Z,21.50
2018-06-08T22:24:46.243Z,21.50
2018-06-08T22:27:15.266Z,21.30
2018-06-08T22:29:44.261Z,21.20
2018-06-08T22:32:13.270Z,21.20
2018-06-08T22:34:42.265Z,21.20
2018-06-08T22:37:11.306Z,21.10
2018-06-08T22:39:40.304Z,21.10
2018-06-08T22:42:09.267Z,21.00
2018-06-08T22:44:38.246Z,21.10
2018-06-08T22:47:07.244Z,21.10
2018-06-08T22:49:36.242Z,21.20
2018-06-08T22:52:05.259Z,21.20
2018-06-08T22:54:34.286Z,20.90
2018-06-08T22:57:03.246Z,20.80
2018-06-08T22:59:32.243Z,20.70
2018-06-08T23:02:01.503Z,20.70
2018-06-08T23:04:30.700Z,20.60
2018-06-08T23:06:59.838Z,20.70
2018-06-08T23:09:28.867Z,20.60
2018-06-08T23:11:57.923Z,20.70
2018-06-08T23:14:26.902Z,20.50
2018-06-08T23:16:55.865Z,20.40
2018-06-08T23:19:24.818Z,20.30
2018-06-08T23:21:53.899Z,20.30
2018-06-08T23:24:22.981Z,20.40
2018-06-08T23:26:51.999Z,20.30
2018-06-08T23:29:20.962Z,20.20
2018-06-08T23:31:50.144Z,20.30
2018-06-08T23:34:19.094Z,20.30
2018-06-08T23:36:48.119Z,20.40
2018-06-08T23:39:17.066Z,20.40
2018-06-08T23:41:46.103Z,20.40
2018-06-08T23:44:15.214Z,20.40
2018-06-08T23:46:44.190Z,20.50
2018-06-08T23:49:13.148Z,20.50
2018-06-08T23:51:42.155Z,20.40
2018-06-08T23:54:11.141Z,20.40
2018-06-08T23:56:40.143Z,20.30
2018-06-08T23:59:09.102Z,20.10
